Terminal Aerodrome Forecast
Issued by NWS

Home | Current Version | Previous Version | Text Only | Print | Product List | Glossary On
Versions: 1 2 3 4 5 6 7 8 9 10 11 12 13 14 15 16 17 18 19 20
000
FTPA31 PHFO 251740
TAFHJR
TAF
PHJR 251740Z 2518/2618 VRB05KT P6SM FEW025
     FM252000 10008G15KT P6SM FEW030 SCT060
     FM260400 07005KT P6SM FEW025 FEW060=

USA.gov is the U.S. government's official web portal to all federal, state and local government web resources and services.